Map

Track Data

SID SEASON NUMBER BASIN SUBBASIN NAME ISO_TIME NATURE LAT LON WMO_WIND WMO_PRES WMO_AGENCY TRACK_TYPE DIST2LAND LANDFALL IFLAG USA_AGENCY USA_ATCF_ID USA_LAT USA_LON USA_RECORD USA_STATUS USA_WIND USA_PRES USA_SSHS USA_R34_NE USA_R34_SE USA_R34_SW USA_R34_NW USA_R50_NE USA_R50_SE USA_R50_SW USA_R50_NW USA_R64_NE USA_R64_SE USA_R64_SW USA_R64_NW USA_POCI USA_ROCI USA_RMW USA_EYE TOKYO_LAT TOKYO_LON TOKYO_GRADE TOKYO_WIND TOKYO_PRES TOKYO_R50_DIR TOKYO_R50_LONG TOKYO_R50_SHORT TOKYO_R30_DIR TOKYO_R30_LONG TOKYO_R30_SHORT TOKYO_LAND CMA_LAT CMA_LON CMA_CAT CMA_WIND CMA_PRES HKO_LAT HKO_LON HKO_CAT HKO_WIND HKO_PRES NEWDELHI_LAT NEWDELHI_LON NEWDELHI_GRADE NEWDELHI_WIND NEWDELHI_PRES NEWDELHI_CI NEWDELHI_DP NEWDELHI_POCI REUNION_LAT REUNION_LON REUNION_TYPE REUNION_WIND REUNION_PRES REUNION_TNUM REUNION_CI REUNION_RMW REUNION_R34_NE REUNION_R34_SE REUNION_R34_SW REUNION_R34_NW REUNION_R50_NE REUNION_R50_SE REUNION_R50_SW REUNION_R50_NW REUNION_R64_NE REUNION_R64_SE REUNION_R64_SW REUNION_R64_NW BOM_LAT BOM_LON BOM_TYPE BOM_WIND BOM_PRES BOM_TNUM BOM_CI BOM_RMW BOM_R34_NE BOM_R34_SE BOM_R34_SW BOM_R34_NW BOM_R50_NE BOM_R50_SE BOM_R50_SW BOM_R50_NW BOM_R64_NE BOM_R64_SE BOM_R64_SW BOM_R64_NW BOM_ROCI BOM_POCI BOM_EYE BOM_POS_METHOD BOM_PRES_METHOD NADI_LAT NADI_LON NADI_CAT NADI_WIND NADI_PRES WELLINGTON_LAT WELLINGTON_LON WELLINGTON_WIND WELLINGTON_PRES DS824_LAT DS824_LON DS824_STAGE DS824_WIND DS824_PRES TD9636_LAT TD9636_LON TD9636_STAGE TD9636_WIND TD9636_PRES TD9635_LAT TD9635_LON TD9635_WIND TD9635_PRES TD9635_ROCI NEUMANN_LAT NEUMANN_LON NEUMANN_CLASS NEUMANN_WIND NEUMANN_PRES MLC_LAT MLC_LON MLC_CLASS MLC_WIND MLC_PRES USA_GUST BOM_GUST BOM_GUST_PER REUNION_GUST REUNION_GUST_PER USA_SEAHGT USA_SEARAD_NE USA_SEARAD_SE USA_SEARAD_SW USA_SEARAD_NW STORM_SPEED STORM_DIR
1906001S14065 1906 1 SI MM NOT_NAMED 1906-01-01 06:00:00 NR -14.0000 65.4000 reunion spur-split 1065 1065 _____O________ -1 -14.0000 65.4000 99 9.90000 2 15
1906001S14065 1906 1 SI MM NOT_NAMED 1906-01-01 09:00:00 NR -13.9064 65.4287 spur-split 1072 1072 _____P________ -1 -13.9064 65.4287 99 2 10
1906001S14065 1906 1 SI MM NOT_NAMED 1906-01-01 12:00:00 NR -13.8301 65.4475 spur-split 1080 1080 _____P________ -1 -13.8301 65.4475 99 1 6
1906001S14065 1906 1 SI MM NOT_NAMED 1906-01-01 15:00:00 NR -13.7883 65.4466 spur-split 1080 1080 _____P________ -1 -13.7883 65.4466 99 0 305
1906001S14065 1906 1 SI MM NOT_NAMED 1906-01-01 18:00:00 NR -13.7982 65.4163 spur-split 1080 1072 _____P________ -1 -13.7982 65.4163 99 1 227
1906001S14065 1906 1 SI MM NOT_NAMED 1906-01-01 21:00:00 NR -13.8771 65.3465 spur-split 1064 1049 _____P________ -1 -13.8771 65.3465 99 3 217
1906001S14065 1906 1 SI MM NOT_NAMED 1906-01-02 00:00:00 NR -14.0422 65.2274 spur-split 1049 1019 _____P________ -1 -14.0422 65.2274 99 5 214
1906001S14065 1906 1 SI MM NOT_NAMED 1906-01-02 03:00:00 NR -14.3107 65.0487 spur-split 1010 965 _____P________ -1 -14.3107 65.0487 99 8 212
1906001S14065 1906 1 SI MM NOT_NAMED 1906-01-02 06:00:00 NR -14.7000 64.8000 reunion spur-split 965 905 _____O________ -1 -14.7000 64.8000 99 9.90000 11 211
1906001S14065 1906 1 SI MM NOT_NAMED 1906-01-02 09:00:00 NR -15.2195 64.4763 spur-split 905 830 _____P________ -1 -15.2195 64.4763 99 13 211
1906001S14065 1906 1 SI MM NOT_NAMED 1906-01-02 12:00:00 NR -15.8482 64.0966 spur-split 830 750 _____P________ -1 -15.8482 64.0966 99 15 210
1906001S14065 1906 1 SI MM NOT_NAMED 1906-01-02 15:00:00 NR -16.5572 63.6862 spur-split 744 667 _____P________ -1 -16.5572 63.6862 99 17 208
1906001S14065 1906 1 SI MM NOT_NAMED 1906-01-02 18:00:00 NR -17.3175 63.2709 spur-split 667 589 _____P________ -1 -17.3175 63.2709 99 17 207
1906001S14065 1906 1 SI MM NOT_NAMED 1906-01-02 21:00:00 NR -18.1003 62.8772 spur-split 589 520 _____P________ -1 -18.1003 62.8772 99 17 204
1906001S14065 1906 1 SI MM NOT_NAMED 1906-01-03 00:00:00 NR -18.8771 62.5322 spur-split 516 476 _____P________ -1 -18.8771 62.5322 99 16 201
1906001S14065 1906 1 SI MM NOT_NAMED 1906-01-03 03:00:00 NR -19.6197 62.2637 spur-split 476 448 _____P________ -1 -19.6197 62.2637 99 15 196
1906001S14065 1906 1 SI MM NOT_NAMED 1906-01-03 06:00:00 NR -20.3000 62.1000 reunion spur-split 448 448 _____O________ -1 -20.3000 62.1000 99 9.90000 13 185
1906001S14065 1906 1 SI MM NOT_NAMED 1906-01-03 09:00:00 NR -20.8588 62.1567 spur-split 462 462 _____P________ -1 -20.8588 62.1567 99 11 169
1906001S14065 1906 1 SI MM NOT_NAMED 1906-01-03 12:00:00 NR -21.3735 62.3195 spur-split 483 483 _____P________ -1 -21.3735 62.3195 99 11 159
1906001S14065 1906 1 SI MM NOT_NAMED 1906-01-03 15:00:00 NR -21.8436 62.5653 spur-split 525 525 _____P________ -1 -21.8436 62.5653 99 10 150
1906001S14065 1906 1 SI MM NOT_NAMED 1906-01-03 18:00:00 NR -22.2682 62.8705 spur-split 573 573 _____P________ -1 -22.2682 62.8705 99 10 143
1906001S14065 1906 1 SI MM NOT_NAMED 1906-01-03 21:00:00 NR -22.6467 63.2111 spur-split 615 615 _____P________ -1 -22.6467 63.2111 99 10 138
1906001S14065 1906 1 SI MM NOT_NAMED 1906-01-04 00:00:00 NR -22.9784 63.5627 spur-split 670 670 _____P________ -1 -22.9784 63.5627 99 9 134
1906001S14065 1906 1 SI MM NOT_NAMED 1906-01-04 03:00:00 NR -23.2630 63.9007 spur-split 711 711 _____P________ -1 -23.2630 63.9007 99 8 132
1906001S14065 1906 1 SI MM NOT_NAMED 1906-01-04 06:00:00 NR -23.5000 64.2000 reunion spur-split 749 749 _____O________ -1 -23.5000 64.2000 99 9.90000 7 131
1906001S14065 1906 1 SI MM NOT_NAMED 1906-01-04 09:00:00 NR -23.6905 64.4411 spur-split 777 777 _____P________ -1 -23.6905 64.4411 99 5 131
1906001S14065 1906 1 SI MM NOT_NAMED 1906-01-04 12:00:00 NR -23.8397 64.6260 spur-split 800 800 _____P________ -1 -23.8397 64.6260 99 4 132
1906001S14065 1906 1 SI MM NOT_NAMED 1906-01-04 15:00:00 NR -23.9535 64.7626 spur-split 828 828 _____P________ -1 -23.9535 64.7626 99 3 133
1906001S14065 1906 1 SI MM NOT_NAMED 1906-01-04 18:00:00 NR -24.0379 64.8588 spur-split 837 837 _____P________ -1 -24.0379 64.8588 99 2 134
1906001S14065 1906 1 SI MM NOT_NAMED 1906-01-04 21:00:00 NR -24.0989 64.9226 spur-split 842 842 _____P________ -1 -24.0989 64.9226 99 1 137
1906001S14065 1906 1 SI MM NOT_NAMED 1906-01-05 00:00:00 NR -24.1423 64.9619 spur-split 851 851 _____P________ -1 -24.1423 64.9619 99 1 141
1906001S14065 1906 1 SI MM NOT_NAMED 1906-01-05 03:00:00 NR -24.1741 64.9850 spur-split 856 856 _____P________ -1 -24.1741 64.9850 99 1 147
1906001S14065 1906 1 SI MM NOT_NAMED 1906-01-05 06:00:00 NR -24.2000 65.0000 reunion spur-split 856 _____O________ -1 -24.2000 65.0000 99 9.90000 1 0

About IBTrACS Database

This database is a web-friendly format of International Best Track Archive for Climate Stewardship (IBTrACS), a global best track data archive curated by NOAA dating back to 1842.

Updated: 2021-11-26